Main page
METAR-TAF:

METAR-TAF

Airports :

Memmingen, Germany

latitude: 47-59-33N, longitude: 10-14-37E, elevation: 633 m

Current weather observation

The report was made 31 minutes ago, at 14:20 UTC
Wind 8 kt from the West/Northwest
Temperature 21°C
Humidity 64%
Pressure 1017 hPa
Visibility 10 km or more
Few clouds at a height of 5600 ft

METAR: EDJA 171420Z 30008KT 9999 FEW056 21/14 Q1017

Time: 16:51 (14:51 UTC)

Forecast

The report was made 51 minutes ago, at 14:00 UTC
Forecast valid from 17 at 15 UTC to 17 at 24 UTC
Wind 7 kt from the West/Southwest
Visibility 10 km or more
no clouds below 1500 m and no cumulonimbus
Becoming
from 17 at 17 UTC to 17 at 19 UTC
Wind 4 kt from the East

TAF: EDJA 171400Z 1715/1724 24007KT CAVOK BECMG 1717/1719 09004KT

Weather observations and forecasts of more than 4000 airports (METAR and TAF reports).

The available stations are represented by yellow and red dots on the map.

Hover mouse over dot to see the name of the station.

Then click to see weather observations and forecasts.

To change the map : click on the green buttons with a black cross to zoom in, on the green button with a dash to zoom out, or on the green arrows for adjacent maps.


METAR-TAF: